EUS35RD LXGB-LEAL
Flight info
| Callsign | EUS35RD |
|---|---|
| Flight time | 0h 58m |
| Altitude | 35000 |
| Route | PIMOS DCT MGA DCT RESTU DCT IZBUZ DCT VILNA DCT D324W DCT D314Y DCT D297T DCT D290T DCT D280S DCT CL10Z DCT LOC11 DCT FF10 DCT 29LOC DCT ML10 |
| Aircraft | B738/M-SDE2E3FGHIRWXY/LB1 |
Departure
| Time | 2026-05-06 08:52 |
|---|---|
| Airport | Gibraltar Airport (LXGB) |
Arrival
| Time | 2026-05-06 09:50 |
|---|---|
| Airport | Alicante-Elche Miguel Hernández Airport (LEAL) |
| Time | Latitude | Longitude | Altitude | Speed | Heading |
|---|---|---|---|---|---|
| 2026-05-06 08:42 | 36.15303 | -5.34667 | 16 ft | 0 kts | 0° |
| 2026-05-06 08:45 | 36.15300 | -5.34667 | 17 ft | 3 kts | 0° |
| 2026-05-06 08:45 | 36.15273 | -5.34667 | 19 ft | 4 kts | 357° |
| 2026-05-06 08:45 | 36.15246 | -5.34664 | 18 ft | 4 kts | 358° |
| 2026-05-06 08:45 | 36.15222 | -5.34668 | 21 ft | 4 kts | 43° |
| 2026-05-06 08:46 | 36.15217 | -5.34674 | 20 ft | 1 kts | 65° |
| 2026-05-06 08:46 | 36.15218 | -5.34674 | 20 ft | 0 kts | 65° |
| 2026-05-06 08:48 | 36.15220 | -5.34667 | 21 ft | 3 kts | 65° |
| 2026-05-06 08:48 | 36.15231 | -5.34612 | 17 ft | 10 kts | 84° |
| 2026-05-06 08:49 | 36.15234 | -5.34508 | 16 ft | 14 kts | 88° |
| 2026-05-06 08:49 | 36.15239 | -5.34376 | 14 ft | 17 kts | 87° |
| 2026-05-06 08:49 | 36.15234 | -5.34254 | 15 ft | 12 kts | 121° |
| 2026-05-06 08:49 | 36.15161 | -5.34208 | 18 ft | 12 kts | 130° |
| 2026-05-06 08:50 | 36.15163 | -5.34112 | 18 ft | 12 kts | 61° |
| 2026-05-06 08:50 | 36.15182 | -5.34049 | 18 ft | 4 kts | 90° |
| 2026-05-06 08:50 | 36.15166 | -5.34023 | 18 ft | 4 kts | 162° |
| 2026-05-06 08:50 | 36.15152 | -5.34045 | 17 ft | 0 kts | 265° |
| 2026-05-06 08:51 | 36.15152 | -5.34047 | 17 ft | 6 kts | 265° |
| 2026-05-06 08:51 | 36.15136 | -5.34501 | 18 ft | 97 kts | 267° |
| 2026-05-06 08:51 | 36.15094 | -5.35636 | 182 ft | 154 kts | 266° |
| 2026-05-06 08:52 | 36.15058 | -5.36987 | 1075 ft | 164 kts | 269° |
| 2026-05-06 08:52 | 36.15022 | -5.38435 | 2202 ft | 175 kts | 269° |
| 2026-05-06 08:52 | 36.14972 | -5.40079 | 2775 ft | 204 kts | 269° |
| 2026-05-06 08:52 | 36.14768 | -5.41901 | 3031 ft | 230 kts | 251° |
| 2026-05-06 08:53 | 36.13783 | -5.43514 | 3575 ft | 245 kts | 219° |
| 2026-05-06 08:53 | 36.12162 | -5.44379 | 3988 ft | 269 kts | 190° |
| 2026-05-06 08:53 | 36.10287 | -5.44226 | 4253 ft | 274 kts | 162° |
| 2026-05-06 08:53 | 36.08665 | -5.43010 | 4551 ft | 277 kts | 134° |
| 2026-05-06 08:54 | 36.07673 | -5.40991 | 5000 ft | 277 kts | 105° |
| 2026-05-06 08:54 | 36.07480 | -5.38644 | 5922 ft | 275 kts | 83° |
| 2026-05-06 08:54 | 36.07772 | -5.36304 | 6831 ft | 277 kts | 78° |
| 2026-05-06 08:54 | 36.08149 | -5.33933 | 7569 ft | 285 kts | 77° |
| 2026-05-06 08:55 | 36.08549 | -5.31505 | 8346 ft | 291 kts | 77° |
| 2026-05-06 08:55 | 36.08952 | -5.29028 | 9149 ft | 297 kts | 78° |
| 2026-05-06 08:55 | 36.09355 | -5.26500 | 9963 ft | 302 kts | 78° |
| 2026-05-06 08:55 | 36.09763 | -5.23901 | 10459 ft | 318 kts | 79° |
| 2026-05-06 08:56 | 36.10194 | -5.21113 | 10749 ft | 339 kts | 79° |
| 2026-05-06 08:56 | 36.10639 | -5.18213 | 11416 ft | 346 kts | 79° |
| 2026-05-06 08:56 | 36.11086 | -5.15278 | 12212 ft | 349 kts | 79° |
| 2026-05-06 08:56 | 36.11536 | -5.12312 | 13020 ft | 353 kts | 79° |
| 2026-05-06 08:57 | 36.11991 | -5.09308 | 13790 ft | 357 kts | 79° |
| 2026-05-06 08:57 | 36.12444 | -5.06312 | 14451 ft | 361 kts | 79° |
| 2026-05-06 08:57 | 36.12908 | -5.03239 | 15133 ft | 365 kts | 79° |
| 2026-05-06 08:57 | 36.13376 | -5.00129 | 15785 ft | 370 kts | 79° |
| 2026-05-06 08:58 | 36.13851 | -4.96974 | 16424 ft | 376 kts | 79° |
| 2026-05-06 08:58 | 36.14331 | -4.93776 | 17074 ft | 381 kts | 79° |
| 2026-05-06 08:58 | 36.15165 | -4.90658 | 17680 ft | 385 kts | 60° |
| 2026-05-06 08:58 | 36.16763 | -4.88001 | 18314 ft | 387 kts | 41° |
| 2026-05-06 08:59 | 36.18926 | -4.86030 | 18876 ft | 388 kts | 30° |
| 2026-05-06 08:59 | 36.21230 | -4.84254 | 19408 ft | 393 kts | 29° |
| 2026-05-06 08:59 | 36.23578 | -4.82478 | 19933 ft | 398 kts | 28° |
| 2026-05-06 08:59 | 36.25952 | -4.80676 | 20463 ft | 402 kts | 28° |
| 2026-05-06 09:00 | 36.28347 | -4.78842 | 20999 ft | 407 kts | 28° |
| 2026-05-06 09:00 | 36.30763 | -4.76974 | 21524 ft | 411 kts | 29° |
| 2026-05-06 09:00 | 36.33200 | -4.75077 | 22046 ft | 416 kts | 29° |
| 2026-05-06 09:00 | 36.35665 | -4.73148 | 22561 ft | 420 kts | 29° |
| 2026-05-06 09:01 | 36.38155 | -4.71195 | 23060 ft | 425 kts | 28° |
| 2026-05-06 09:01 | 36.40663 | -4.69225 | 23550 ft | 429 kts | 28° |
| 2026-05-06 09:01 | 36.43194 | -4.67234 | 23971 ft | 432 kts | 28° |
| 2026-05-06 09:01 | 36.45743 | -4.65228 | 24412 ft | 435 kts | 28° |
| 2026-05-06 09:02 | 36.48307 | -4.63208 | 24855 ft | 438 kts | 28° |
| 2026-05-06 09:02 | 36.50852 | -4.61202 | 25274 ft | 441 kts | 28° |
| 2026-05-06 09:02 | 36.53450 | -4.59153 | 25685 ft | 444 kts | 28° |
| 2026-05-06 09:02 | 36.56065 | -4.57089 | 26096 ft | 447 kts | 28° |
| 2026-05-06 09:03 | 36.58697 | -4.55010 | 26519 ft | 449 kts | 28° |
| 2026-05-06 09:03 | 36.61342 | -4.52919 | 26941 ft | 452 kts | 28° |
| 2026-05-06 09:03 | 36.64006 | -4.50811 | 27348 ft | 453 kts | 28° |
| 2026-05-06 09:03 | 36.66677 | -4.48695 | 27714 ft | 457 kts | 28° |
| 2026-05-06 09:04 | 36.69369 | -4.46561 | 28060 ft | 460 kts | 28° |
| 2026-05-06 09:04 | 36.72078 | -4.44412 | 28433 ft | 463 kts | 28° |
| 2026-05-06 09:04 | 36.74802 | -4.42250 | 28803 ft | 465 kts | 28° |
| 2026-05-06 09:04 | 36.77533 | -4.40061 | 29169 ft | 469 kts | 31° |
| 2026-05-06 09:05 | 36.78654 | -4.39028 | 29315 ft | 472 kts | 36° |
| 2026-05-06 09:05 | 36.81062 | -4.36187 | 29659 ft | 479 kts | 45° |
| 2026-05-06 09:05 | 36.83115 | -4.32898 | 30006 ft | 484 kts | 55° |
| 2026-05-06 09:06 | 36.84767 | -4.29218 | 30280 ft | 488 kts | 61° |
| 2026-05-06 09:06 | 36.86294 | -4.25421 | 30522 ft | 491 kts | 63° |
| 2026-05-06 09:06 | 36.87114 | -4.23329 | 30655 ft | 492 kts | 63° |
| 2026-05-06 09:06 | 36.88612 | -4.19477 | 30961 ft | 493 kts | 63° |
| 2026-05-06 09:07 | 36.90118 | -4.15621 | 31347 ft | 492 kts | 63° |
| 2026-05-06 09:07 | 36.91629 | -4.11791 | 31744 ft | 491 kts | 63° |
| 2026-05-06 09:07 | 36.93148 | -4.07977 | 32123 ft | 490 kts | 62° |
| 2026-05-06 09:07 | 36.94672 | -4.04175 | 32456 ft | 490 kts | 62° |
| 2026-05-06 09:08 | 36.96187 | -4.00407 | 32796 ft | 490 kts | 62° |
| 2026-05-06 09:08 | 36.97736 | -3.96556 | 33172 ft | 490 kts | 62° |
| 2026-05-06 09:08 | 36.99267 | -3.92749 | 33520 ft | 490 kts | 62° |
| 2026-05-06 09:08 | 37.00795 | -3.88942 | 33837 ft | 490 kts | 62° |
| 2026-05-06 09:09 | 37.02303 | -3.85182 | 34108 ft | 490 kts | 63° |
| 2026-05-06 09:09 | 37.03828 | -3.81369 | 34389 ft | 490 kts | 63° |
| 2026-05-06 09:09 | 37.05353 | -3.77551 | 34621 ft | 491 kts | 63° |
| 2026-05-06 09:09 | 37.06879 | -3.73727 | 34901 ft | 491 kts | 63° |
| 2026-05-06 09:10 | 37.08406 | -3.69893 | 34997 ft | 494 kts | 63° |
| 2026-05-06 09:10 | 37.11485 | -3.62154 | 34993 ft | 496 kts | 63° |
| 2026-05-06 09:11 | 37.14535 | -3.54463 | 34985 ft | 489 kts | 63° |
| 2026-05-06 09:11 | 37.17557 | -3.46827 | 34995 ft | 489 kts | 63° |
| 2026-05-06 09:12 | 37.20577 | -3.39180 | 34983 ft | 489 kts | 63° |
| 2026-05-06 09:12 | 37.23594 | -3.31521 | 34967 ft | 490 kts | 63° |
| 2026-05-06 09:13 | 37.26607 | -3.23850 | 34954 ft | 490 kts | 63° |
| 2026-05-06 09:13 | 37.29602 | -3.16212 | 34952 ft | 490 kts | 63° |
| 2026-05-06 09:14 | 37.32610 | -3.08517 | 34953 ft | 491 kts | 63° |
| 2026-05-06 09:14 | 37.35616 | -3.00811 | 34952 ft | 491 kts | 63° |
| 2026-05-06 09:15 | 37.38619 | -2.93092 | 34954 ft | 491 kts | 63° |
| 2026-05-06 09:15 | 37.41618 | -2.85364 | 34952 ft | 492 kts | 63° |
| 2026-05-06 09:16 | 37.44612 | -2.77630 | 34955 ft | 491 kts | 63° |
| 2026-05-06 09:16 | 37.47600 | -2.69894 | 34953 ft | 491 kts | 63° |
| 2026-05-06 09:17 | 37.50582 | -2.62152 | 34955 ft | 491 kts | 63° |
| 2026-05-06 09:17 | 37.53561 | -2.54401 | 34953 ft | 492 kts | 63° |
| 2026-05-06 09:18 | 37.56037 | -2.47943 | 34949 ft | 491 kts | 63° |
| 2026-05-06 09:18 | 37.59001 | -2.40194 | 34953 ft | 491 kts | 63° |
| 2026-05-06 09:19 | 37.61966 | -2.32423 | 34955 ft | 491 kts | 63° |
| 2026-05-06 09:19 | 37.64917 | -2.24669 | 34949 ft | 490 kts | 63° |
| 2026-05-06 09:20 | 37.67860 | -2.16916 | 34695 ft | 490 kts | 63° |
| 2026-05-06 09:20 | 37.69328 | -2.13042 | 34343 ft | 485 kts | 63° |
| 2026-05-06 09:20 | 37.70771 | -2.09226 | 33962 ft | 480 kts | 64° |
| 2026-05-06 09:20 | 37.72186 | -2.05483 | 33523 ft | 477 kts | 64° |
| 2026-05-06 09:21 | 37.73608 | -2.01714 | 33097 ft | 473 kts | 64° |
| 2026-05-06 09:21 | 37.75019 | -1.97973 | 32686 ft | 470 kts | 64° |
| 2026-05-06 09:21 | 37.76417 | -1.94260 | 32282 ft | 466 kts | 64° |
| 2026-05-06 09:21 | 37.77805 | -1.90571 | 31898 ft | 462 kts | 64° |
| 2026-05-06 09:22 | 37.79176 | -1.86919 | 31509 ft | 458 kts | 64° |
| 2026-05-06 09:22 | 37.80538 | -1.83292 | 31117 ft | 455 kts | 63° |
| 2026-05-06 09:22 | 37.81892 | -1.79679 | 30746 ft | 452 kts | 63° |
| 2026-05-06 09:22 | 37.83219 | -1.76134 | 30380 ft | 449 kts | 63° |
| 2026-05-06 09:23 | 37.84552 | -1.72569 | 29992 ft | 447 kts | 63° |
| 2026-05-06 09:23 | 37.85876 | -1.69023 | 29555 ft | 444 kts | 64° |
| 2026-05-06 09:23 | 37.87190 | -1.65501 | 29138 ft | 441 kts | 64° |
| 2026-05-06 09:23 | 37.88494 | -1.62003 | 28755 ft | 436 kts | 64° |
| 2026-05-06 09:24 | 37.89809 | -1.58557 | 28351 ft | 433 kts | 59° |
| 2026-05-06 09:24 | 37.91436 | -1.55374 | 27982 ft | 427 kts | 50° |
| 2026-05-06 09:24 | 37.93393 | -1.52607 | 27569 ft | 420 kts | 39° |
| 2026-05-06 09:24 | 37.95532 | -1.50120 | 27214 ft | 415 kts | 38° |
| 2026-05-06 09:25 | 37.97651 | -1.47711 | 26830 ft | 412 kts | 38° |
| 2026-05-06 09:25 | 37.99780 | -1.45292 | 26449 ft | 410 kts | 38° |
| 2026-05-06 09:25 | 38.01888 | -1.42877 | 26078 ft | 407 kts | 39° |
| 2026-05-06 09:25 | 38.03976 | -1.40466 | 25712 ft | 405 kts | 39° |
| 2026-05-06 09:26 | 38.06045 | -1.38062 | 25343 ft | 402 kts | 39° |
| 2026-05-06 09:26 | 38.08098 | -1.35667 | 24978 ft | 400 kts | 39° |
| 2026-05-06 09:26 | 38.10143 | -1.33277 | 24612 ft | 398 kts | 39° |
| 2026-05-06 09:26 | 38.12173 | -1.30903 | 24248 ft | 396 kts | 39° |
| 2026-05-06 09:27 | 38.14192 | -1.28539 | 23891 ft | 394 kts | 39° |
| 2026-05-06 09:27 | 38.16204 | -1.26183 | 23506 ft | 393 kts | 39° |
| 2026-05-06 09:27 | 38.18209 | -1.23834 | 23084 ft | 391 kts | 40° |
| 2026-05-06 09:27 | 38.20206 | -1.21491 | 22683 ft | 389 kts | 40° |
| 2026-05-06 09:28 | 38.22159 | -1.19199 | 22297 ft | 386 kts | 40° |
| 2026-05-06 09:28 | 38.24123 | -1.16897 | 21956 ft | 382 kts | 40° |
| 2026-05-06 09:28 | 38.26077 | -1.14607 | 21584 ft | 380 kts | 40° |
| 2026-05-06 09:28 | 38.28009 | -1.12344 | 21225 ft | 377 kts | 40° |
| 2026-05-06 09:29 | 38.29930 | -1.10092 | 20867 ft | 374 kts | 40° |
| 2026-05-06 09:29 | 38.31834 | -1.07856 | 20512 ft | 371 kts | 40° |
| 2026-05-06 09:29 | 38.33727 | -1.05632 | 20155 ft | 368 kts | 40° |
| 2026-05-06 09:29 | 38.35605 | -1.03423 | 19804 ft | 366 kts | 40° |
| 2026-05-06 09:30 | 38.37320 | -1.01406 | 19501 ft | 364 kts | 40° |
| 2026-05-06 09:30 | 38.39172 | -0.99224 | 19152 ft | 362 kts | 41° |
| 2026-05-06 09:30 | 38.41013 | -0.97054 | 18803 ft | 360 kts | 41° |
| 2026-05-06 09:30 | 38.42829 | -0.94913 | 18462 ft | 358 kts | 41° |
| 2026-05-06 09:31 | 38.44645 | -0.92769 | 18097 ft | 356 kts | 41° |
| 2026-05-06 09:31 | 38.46466 | -0.90618 | 17702 ft | 354 kts | 41° |
| 2026-05-06 09:31 | 38.48263 | -0.88494 | 17334 ft | 352 kts | 41° |
| 2026-05-06 09:31 | 38.50057 | -0.86373 | 16972 ft | 350 kts | 40° |
| 2026-05-06 09:32 | 38.52042 | -0.84670 | 16594 ft | 342 kts | 18° |
| 2026-05-06 09:32 | 38.54318 | -0.84057 | 16278 ft | 330 kts | 356° |
| 2026-05-06 09:32 | 38.56549 | -0.84466 | 15974 ft | 319 kts | 339° |
| 2026-05-06 09:32 | 38.58457 | -0.85774 | 15582 ft | 308 kts | 312° |
| 2026-05-06 09:33 | 38.59554 | -0.88027 | 15237 ft | 296 kts | 283° |
| 2026-05-06 09:33 | 38.59584 | -0.90570 | 14802 ft | 288 kts | 253° |
| 2026-05-06 09:33 | 38.58524 | -0.92703 | 14557 ft | 287 kts | 222° |
| 2026-05-06 09:33 | 38.56726 | -0.93763 | 14362 ft | 290 kts | 191° |
| 2026-05-06 09:34 | 38.54715 | -0.93939 | 14051 ft | 289 kts | 192° |
| 2026-05-06 09:34 | 38.52738 | -0.94403 | 13724 ft | 288 kts | 193° |
| 2026-05-06 09:34 | 38.50724 | -0.94541 | 13376 ft | 291 kts | 183° |
| 2026-05-06 09:34 | 38.49386 | -0.94512 | 13158 ft | 290 kts | 183° |
| 2026-05-06 09:35 | 38.44602 | -0.94489 | 12416 ft | 285 kts | 184° |
| 2026-05-06 09:35 | 38.42629 | -0.94576 | 12097 ft | 281 kts | 192° |
| 2026-05-06 09:35 | 38.40792 | -0.95322 | 11827 ft | 274 kts | 206° |
| 2026-05-06 09:36 | 38.39005 | -0.96161 | 11504 ft | 276 kts | 193° |
| 2026-05-06 09:36 | 38.37083 | -0.96161 | 11217 ft | 280 kts | 172° |
| 2026-05-06 09:36 | 38.35225 | -0.95436 | 10912 ft | 284 kts | 153° |
| 2026-05-06 09:36 | 38.33779 | -0.93722 | 10631 ft | 288 kts | 125° |
| 2026-05-06 09:37 | 38.33027 | -0.91394 | 10347 ft | 290 kts | 104° |
| 2026-05-06 09:37 | 38.32670 | -0.88883 | 10171 ft | 285 kts | 100° |
| 2026-05-06 09:37 | 38.32739 | -0.86376 | 10018 ft | 286 kts | 74° |
| 2026-05-06 09:37 | 38.33671 | -0.84159 | 9871 ft | 287 kts | 47° |
| 2026-05-06 09:38 | 38.35274 | -0.82703 | 9706 ft | 279 kts | 19° |
| 2026-05-06 09:38 | 38.37099 | -0.82031 | 9572 ft | 272 kts | 6° |
| 2026-05-06 09:38 | 38.38979 | -0.82176 | 9289 ft | 276 kts | 338° |
| 2026-05-06 09:38 | 38.40607 | -0.83412 | 9069 ft | 277 kts | 312° |
| 2026-05-06 09:39 | 38.41619 | -0.85456 | 8813 ft | 272 kts | 285° |
| 2026-05-06 09:39 | 38.41884 | -0.87815 | 8573 ft | 267 kts | 271° |
| 2026-05-06 09:39 | 38.41928 | -0.90168 | 8306 ft | 264 kts | 270° |
| 2026-05-06 09:39 | 38.41767 | -0.92471 | 8024 ft | 261 kts | 251° |
| 2026-05-06 09:40 | 38.40895 | -0.94475 | 7766 ft | 261 kts | 226° |
| 2026-05-06 09:40 | 38.39378 | -0.95741 | 7523 ft | 264 kts | 199° |
| 2026-05-06 09:40 | 38.35955 | -0.95133 | 7259 ft | 246 kts | 144° |
| 2026-05-06 09:41 | 38.34797 | -0.93609 | 7125 ft | 236 kts | 121° |
| 2026-05-06 09:41 | 38.34354 | -0.91640 | 6794 ft | 233 kts | 88° |
| 2026-05-06 09:41 | 38.34796 | -0.89686 | 6443 ft | 231 kts | 55° |
| 2026-05-06 09:41 | 38.35978 | -0.88364 | 6103 ft | 227 kts | 22° |
| 2026-05-06 09:42 | 38.37517 | -0.88073 | 5713 ft | 226 kts | 349° |
| 2026-05-06 09:42 | 38.38913 | -0.88898 | 5368 ft | 222 kts | 317° |
| 2026-05-06 09:42 | 38.39847 | -0.90379 | 5385 ft | 215 kts | 291° |
| 2026-05-06 09:42 | 38.40017 | -0.92281 | 5424 ft | 225 kts | 258° |
| 2026-05-06 09:43 | 38.39317 | -0.94067 | 5420 ft | 231 kts | 225° |
| 2026-05-06 09:43 | 38.37948 | -0.95093 | 5416 ft | 230 kts | 192° |
| 2026-05-06 09:43 | 38.36383 | -0.94969 | 5408 ft | 227 kts | 157° |
| 2026-05-06 09:43 | 38.35175 | -0.93791 | 5402 ft | 223 kts | 127° |
| 2026-05-06 09:44 | 38.34410 | -0.92093 | 5196 ft | 220 kts | 115° |
| 2026-05-06 09:44 | 38.33785 | -0.90341 | 4942 ft | 214 kts | 114° |
| 2026-05-06 09:44 | 38.33181 | -0.88629 | 4695 ft | 209 kts | 114° |
| 2026-05-06 09:44 | 38.32646 | -0.86952 | 4621 ft | 198 kts | 105° |
| 2026-05-06 09:45 | 38.32340 | -0.85210 | 4416 ft | 206 kts | 100° |
| 2026-05-06 09:45 | 38.32087 | -0.83412 | 4159 ft | 206 kts | 99° |
| 2026-05-06 09:45 | 38.31838 | -0.81626 | 3893 ft | 203 kts | 100° |
| 2026-05-06 09:45 | 38.31592 | -0.79872 | 3637 ft | 199 kts | 100° |
| 2026-05-06 09:46 | 38.31349 | -0.78153 | 3387 ft | 195 kts | 100° |
| 2026-05-06 09:46 | 38.31113 | -0.76476 | 3126 ft | 190 kts | 99° |
| 2026-05-06 09:46 | 38.30884 | -0.74854 | 2861 ft | 181 kts | 99° |
| 2026-05-06 09:46 | 38.30669 | -0.73334 | 2630 ft | 169 kts | 99° |
| 2026-05-06 09:47 | 38.30467 | -0.71900 | 2421 ft | 162 kts | 99° |
| 2026-05-06 09:47 | 38.30270 | -0.70495 | 2202 ft | 160 kts | 99° |
| 2026-05-06 09:47 | 38.30079 | -0.69119 | 2014 ft | 155 kts | 99° |
| 2026-05-06 09:47 | 38.29890 | -0.67783 | 1803 ft | 153 kts | 99° |
| 2026-05-06 09:48 | 38.29707 | -0.66486 | 1610 ft | 148 kts | 99° |
| 2026-05-06 09:48 | 38.29529 | -0.65199 | 1408 ft | 145 kts | 99° |
| 2026-05-06 09:48 | 38.29350 | -0.63918 | 1214 ft | 149 kts | 99° |
| 2026-05-06 09:48 | 38.29169 | -0.62611 | 1007 ft | 150 kts | 99° |
| 2026-05-06 09:49 | 38.28982 | -0.61299 | 805 ft | 150 kts | 101° |
| 2026-05-06 09:49 | 38.28797 | -0.59999 | 589 ft | 148 kts | 98° |
| 2026-05-06 09:49 | 38.28621 | -0.58714 | 400 ft | 148 kts | 100° |
| 2026-05-06 09:49 | 38.28439 | -0.57422 | 180 ft | 149 kts | 98° |
| 2026-05-06 09:50 | 38.28273 | -0.56213 | 113 ft | 116 kts | 100° |
| 2026-05-06 09:50 | 38.28171 | -0.55465 | 95 ft | 59 kts | 100° |
| 2026-05-06 09:50 | 38.28126 | -0.55143 | 83 ft | 20 kts | 98° |
| 2026-05-06 09:50 | 38.28133 | -0.54968 | 75 ft | 20 kts | 78° |
| 2026-05-06 09:51 | 38.28168 | -0.54806 | 63 ft | 19 kts | 71° |
| 2026-05-06 09:51 | 38.28217 | -0.54718 | 66 ft | 10 kts | 4° |
| 2026-05-06 09:51 | 38.28251 | -0.54772 | 68 ft | 9 kts | 275° |
| 2026-05-06 09:51 | 38.28260 | -0.54847 | 70 ft | 8 kts | 279° |
| 2026-05-06 09:52 | 38.28270 | -0.54919 | 67 ft | 8 kts | 281° |
| 2026-05-06 09:52 | 38.28280 | -0.54989 | 76 ft | 8 kts | 280° |
| 2026-05-06 09:52 | 38.28290 | -0.55057 | 80 ft | 8 kts | 280° |
| 2026-05-06 09:52 | 38.28298 | -0.55124 | 89 ft | 8 kts | 279° |
| 2026-05-06 09:53 | 38.28318 | -0.55197 | 88 ft | 9 kts | 313° |
| 2026-05-06 09:53 | 38.28362 | -0.55198 | 86 ft | 7 kts | 34° |
| 2026-05-06 09:53 | 38.28402 | -0.55134 | 87 ft | 10 kts | 56° |
| 2026-05-06 09:53 | 38.28420 | -0.55052 | 87 ft | 10 kts | 90° |
| 2026-05-06 09:54 | 38.28451 | -0.54984 | 86 ft | 9 kts | 22° |
| 2026-05-06 09:54 | 38.28515 | -0.54970 | 87 ft | 9 kts | 11° |
| 2026-05-06 09:54 | 38.28577 | -0.54956 | 88 ft | 9 kts | 7° |
| 2026-05-06 09:54 | 38.28603 | -0.54990 | 88 ft | 5 kts | 285° |
| 2026-05-06 09:55 | 38.28609 | -0.55031 | 87 ft | 2 kts | 279° |
| 2026-05-06 09:55 | 38.28610 | -0.55038 | 87 ft | 0 kts | 279° |